createdAt,value
2024-03-08T00:00:49.169Z,49.55
2024-03-08T00:03:15.803Z,50.26
2024-03-08T00:05:42.545Z,49.41
2024-03-08T00:08:11.336Z,49.24
2024-03-08T00:10:39.984Z,49.23
2024-03-08T00:13:07.682Z,49.24
2024-03-08T00:15:34.300Z,49.30
2024-03-08T00:18:00.949Z,49.21
2024-03-08T00:20:27.569Z,49.22
2024-03-08T00:22:54.257Z,49.14
2024-03-08T00:25:21.126Z,49.27
2024-03-08T00:27:50.613Z,49.67
2024-03-08T00:30:17.384Z,49.50
2024-03-08T00:32:44.257Z,49.46
2024-03-08T00:35:11.057Z,49.52
2024-03-08T00:37:37.688Z,49.66
2024-03-08T00:40:04.840Z,49.46
2024-03-08T00:42:31.409Z,48.98
2024-03-08T00:44:59.076Z,49.30
2024-03-08T00:47:25.952Z,49.54
2024-03-08T00:49:52.695Z,49.20
2024-03-08T00:52:19.697Z,49.08
2024-03-08T00:54:46.362Z,48.98
2024-03-08T00:57:13.394Z,49.07
2024-03-08T00:59:40.192Z,48.75
2024-03-08T01:02:07.190Z,49.15
2024-03-08T01:04:34.294Z,49.24
2024-03-08T01:07:01.089Z,49.32
2024-03-08T01:09:28.158Z,49.42
2024-03-08T01:11:55.622Z,49.37
2024-03-08T01:14:26.933Z,49.38
2024-03-08T01:16:54.003Z,49.26
2024-03-08T01:19:20.606Z,49.29
2024-03-08T01:21:47.504Z,49.20
2024-03-08T01:24:14.210Z,49.12
2024-03-08T01:26:41.259Z,49.20
2024-03-08T01:29:09.166Z,48.93
2024-03-08T01:31:37.706Z,48.90
2024-03-08T01:34:04.365Z,48.99
2024-03-08T01:36:30.889Z,49.14
2024-03-08T01:38:57.537Z,48.93
2024-03-08T01:41:24.759Z,48.74
2024-03-08T01:43:51.551Z,48.93
2024-03-08T01:46:19.916Z,49.06
2024-03-08T01:48:46.615Z,48.89
2024-03-08T01:51:13.650Z,49.18
2024-03-08T01:53:40.308Z,49.44
2024-03-08T01:56:06.879Z,49.35
2024-03-08T01:58:34.171Z,49.84
2024-03-08T02:01:00.893Z,48.68
2024-03-08T02:03:27.622Z,48.75
2024-03-08T02:05:54.163Z,49.04
2024-03-08T02:08:23.527Z,48.73
2024-03-08T02:10:50.567Z,49.20
2024-03-08T02:13:17.157Z,49.27
2024-03-08T02:15:57.193Z,48.94
2024-03-08T02:18:24.521Z,48.95
2024-03-08T02:20:53.231Z,48.86
2024-03-08T02:23:20.884Z,48.99
2024-03-08T02:25:48.095Z,49.13
2024-03-08T02:28:15.141Z,49.14
2024-03-08T02:30:41.832Z,49.23
2024-03-08T02:33:10.394Z,49.34
2024-03-08T02:35:37.247Z,49.44
2024-03-08T02:38:05.347Z,49.00
2024-03-08T02:40:31.928Z,48.92
2024-03-08T02:42:59.244Z,49.02
2024-03-08T02:45:25.798Z,49.07
2024-03-08T02:47:52.641Z,48.99
2024-03-08T02:50:19.327Z,49.04
2024-03-08T02:52:47.700Z,48.91
2024-03-08T02:55:17.421Z,49.50
2024-03-08T02:57:48.301Z,48.73
2024-03-08T03:00:16.689Z,48.81
2024-03-08T03:02:43.874Z,48.73
2024-03-08T03:05:10.802Z,48.88
2024-03-08T03:07:37.319Z,49.07
2024-03-08T03:10:04.116Z,49.26
2024-03-08T03:12:31.220Z,49.09
2024-03-08T03:15:01.239Z,49.21
2024-03-08T03:17:28.051Z,49.18
2024-03-08T03:19:54.625Z,49.05
2024-03-08T03:22:21.249Z,49.05
2024-03-08T03:24:47.851Z,49.09
2024-03-08T03:27:16.279Z,48.87
2024-03-08T03:29:46.578Z,48.90
2024-03-08T03:32:13.662Z,48.79
2024-03-08T03:34:40.766Z,48.66
2024-03-08T03:37:09.518Z,48.65
2024-03-08T03:39:41.756Z,48.83
2024-03-08T03:42:08.451Z,48.68
2024-03-08T03:44:35.062Z,48.47
2024-03-08T03:47:01.936Z,48.98
2024-03-08T03:49:30.118Z,49.13
2024-03-08T03:51:57.361Z,49.20
2024-03-08T03:54:23.903Z,49.21
2024-03-08T03:56:53.899Z,49.05
2024-03-08T03:59:20.491Z,48.91
2024-03-08T04:01:47.167Z,49.13
2024-03-08T04:04:13.712Z,48.93
2024-03-08T04:06:40.349Z,48.88
2024-03-08T04:09:06.992Z,49.02
2024-03-08T04:11:33.621Z,48.45
2024-03-08T04:14:00.262Z,49.07
2024-03-08T04:18:53.827Z,48.73
2024-03-08T04:21:20.889Z,48.89
2024-03-08T04:23:47.516Z,48.92
2024-03-08T04:26:15.084Z,48.92
2024-03-08T04:28:42.746Z,49.03
2024-03-08T04:31:09.325Z,49.22
2024-03-08T04:33:38.688Z,48.99
2024-03-08T04:36:05.642Z,49.17
2024-03-08T04:38:32.279Z,48.89
2024-03-08T04:40:59.115Z,48.91
2024-03-08T04:43:27.767Z,48.73
2024-03-08T04:45:54.690Z,48.43
2024-03-08T04:48:21.894Z,48.49
2024-03-08T04:50:48.657Z,48.86
2024-03-08T04:53:15.201Z,48.65
2024-03-08T04:55:41.867Z,48.92
2024-03-08T04:58:08.751Z,48.62
2024-03-08T05:00:35.377Z,48.98
2024-03-08T05:03:02.133Z,48.73
2024-03-08T05:05:31.491Z,48.53
2024-03-08T05:07:58.109Z,48.44
2024-03-08T05:10:24.673Z,48.85
2024-03-08T05:12:53.534Z,48.96
2024-03-08T05:15:21.729Z,48.94
2024-03-08T05:17:48.496Z,49.34
2024-03-08T05:20:15.227Z,48.84
2024-03-08T05:22:41.774Z,48.79
2024-03-08T05:25:11.759Z,48.64
2024-03-08T05:27:38.760Z,48.65
2024-03-08T05:30:06.052Z,48.66
2024-03-08T05:32:32.957Z,48.48
2024-03-08T05:34:59.601Z,48.44
2024-03-08T05:37:26.329Z,48.44
2024-03-08T05:39:52.898Z,48.54
2024-03-08T05:42:19.464Z,48.90
2024-03-08T05:44:46.142Z,48.99
2024-03-08T05:47:12.736Z,48.80
2024-03-08T05:49:40.410Z,48.85
2024-03-08T05:52:07.040Z,48.79
2024-03-08T05:54:34.269Z,48.80
2024-03-08T05:57:01.003Z,48.74
2024-03-08T05:59:27.985Z,48.58
2024-03-08T06:01:54.633Z,48.41
2024-03-08T06:04:21.145Z,48.99
2024-03-08T06:06:51.250Z,48.48
2024-03-08T06:09:24.128Z,48.53
2024-03-08T06:11:51.940Z,48.35
2024-03-08T06:14:19.917Z,48.01
2024-03-08T06:16:47.785Z,48.30
2024-03-08T06:19:14.656Z,48.17
2024-03-08T06:21:42.050Z,48.60
2024-03-08T06:24:08.623Z,48.41
2024-03-08T06:26:37.968Z,48.13
2024-03-08T06:29:07.847Z,48.56
2024-03-08T06:31:34.623Z,48.66
2024-03-08T06:34:01.262Z,48.58
2024-03-08T06:36:29.278Z,48.63
2024-03-08T06:38:56.141Z,48.03
2024-03-08T06:41:22.699Z,48.42
2024-03-08T06:43:50.074Z,48.46
2024-03-08T06:46:17.216Z,48.25
2024-03-08T06:48:44.195Z,48.31
2024-03-08T06:51:12.135Z,48.24
2024-03-08T06:53:39.713Z,47.99
2024-03-08T06:56:06.599Z,48.36
2024-03-08T06:58:33.857Z,48.43
2024-03-08T07:01:01.702Z,48.13
2024-03-08T07:03:30.548Z,48.44
2024-03-08T07:06:03.661Z,48.55
2024-03-08T07:08:31.202Z,48.70
2024-03-08T07:10:59.398Z,48.63
2024-03-08T07:13:26.312Z,48.57
2024-03-08T07:15:53.366Z,48.36
2024-03-08T07:18:20.116Z,48.15
2024-03-08T07:20:46.865Z,48.41
2024-03-08T07:23:33.469Z,48.16
2024-03-08T07:26:01.920Z,48.07
2024-03-08T07:28:28.803Z,48.10
2024-03-08T07:31:09.145Z,48.00
2024-03-08T07:33:35.833Z,48.19
2024-03-08T07:36:02.452Z,48.09
2024-03-08T07:38:29.022Z,48.15
2024-03-08T07:40:55.586Z,48.04
2024-03-08T07:43:23.273Z,48.11
2024-03-08T07:45:49.851Z,48.33
2024-03-08T07:48:17.780Z,48.29
2024-03-08T07:50:44.459Z,48.48
2024-03-08T07:53:11.326Z,48.38
2024-03-08T07:55:37.908Z,48.55
2024-03-08T07:58:04.629Z,48.32
2024-03-08T08:00:32.796Z,48.18
2024-03-08T08:02:59.967Z,48.14
2024-03-08T08:05:27.444Z,48.03
2024-03-08T08:07:54.524Z,47.88
2024-03-08T08:10:26.477Z,48.01
2024-03-08T08:12:53.427Z,48.29
2024-03-08T08:15:19.952Z,48.09
2024-03-08T08:17:46.558Z,48.39
2024-03-08T08:20:14.321Z,48.08
2024-03-08T08:22:41.733Z,48.09
2024-03-08T08:25:09.198Z,48.38
2024-03-08T08:27:37.521Z,48.45
2024-03-08T08:30:09.180Z,48.39
2024-03-08T08:32:40.206Z,48.51
2024-03-08T08:35:07.436Z,48.47
2024-03-08T08:37:34.970Z,48.26
2024-03-08T08:40:06.718Z,48.27
2024-03-08T08:42:33.333Z,48.11
2024-03-08T08:45:05.215Z,47.99
2024-03-08T08:47:36.875Z,48.14
2024-03-08T08:50:05.568Z,48.01
2024-03-08T08:52:33.098Z,47.91
2024-03-08T08:54:59.686Z,47.86
2024-03-08T08:57:27.360Z,47.97
2024-03-08T08:59:53.857Z,47.94
2024-03-08T09:02:22.221Z,48.18
2024-03-08T09:04:51.864Z,48.18
2024-03-08T09:07:20.093Z,48.11
2024-03-08T09:09:46.802Z,48.65
2024-03-08T09:12:16.057Z,48.06
2024-03-08T09:14:42.672Z,48.39
2024-03-08T09:17:09.727Z,48.22
2024-03-08T09:19:37.649Z,48.25
2024-03-08T09:22:05.470Z,48.32
2024-03-08T09:24:32.614Z,48.03
2024-03-08T09:27:02.013Z,48.00
2024-03-08T09:29:29.414Z,47.50
2024-03-08T09:31:56.337Z,48.12
2024-03-08T09:34:25.827Z,47.87
2024-03-08T09:36:55.774Z,48.07
2024-03-08T09:39:24.047Z,48.26
2024-03-08T09:41:51.602Z,47.79
2024-03-08T09:44:18.699Z,48.29
2024-03-08T09:46:45.372Z,48.40
2024-03-08T09:49:12.754Z,48.27
2024-03-08T09:51:41.263Z,48.36
2024-03-08T09:54:14.470Z,48.25
2024-03-08T09:56:45.587Z,48.26
2024-03-08T09:59:23.864Z,48.08
2024-03-08T10:01:50.763Z,48.43
2024-03-08T10:04:18.501Z,48.26
2024-03-08T10:06:45.613Z,48.38
2024-03-08T10:09:12.846Z,48.74
2024-03-08T10:11:40.300Z,48.04
2024-03-08T10:14:07.354Z,48.00
2024-03-08T10:16:35.107Z,48.05
2024-03-08T10:19:01.744Z,48.08
2024-03-08T10:21:29.398Z,48.19
2024-03-08T10:23:57.054Z,48.22
2024-03-08T10:26:24.548Z,48.27
2024-03-08T10:28:52.423Z,48.14
2024-03-08T10:31:20.312Z,48.44
2024-03-08T10:33:50.429Z,48.38
2024-03-08T10:36:17.282Z,48.23
2024-03-08T10:38:48.524Z,48.18
2024-03-08T10:41:15.719Z,47.79
2024-03-08T10:43:48.246Z,48.04
2024-03-08T10:46:23.997Z,48.08
2024-03-08T10:48:50.880Z,48.10
2024-03-08T10:51:17.466Z,47.87
2024-03-08T10:53:44.728Z,48.13
2024-03-08T10:56:11.479Z,48.26
2024-03-08T10:58:38.506Z,48.00
2024-03-08T11:01:05.167Z,48.18
2024-03-08T11:03:51.674Z,48.32
2024-03-08T11:06:31.646Z,48.38
2024-03-08T11:08:59.437Z,48.27
2024-03-08T11:11:34.532Z,48.44
2024-03-08T11:14:02.996Z,48.68
2024-03-08T11:16:30.025Z,48.49
2024-03-08T11:19:05.549Z,48.18
2024-03-08T11:21:34.468Z,48.13
2024-03-08T11:24:01.747Z,48.11
2024-03-08T11:26:28.530Z,48.10
2024-03-08T11:28:57.085Z,48.11
2024-03-08T11:31:24.738Z,48.00
2024-03-08T11:33:51.388Z,48.28
2024-03-08T11:36:25.549Z,48.17
2024-03-08T11:38:57.125Z,48.21
2024-03-08T11:41:24.434Z,48.27
2024-03-08T11:43:51.810Z,48.27
2024-03-08T11:46:22.250Z,48.37
2024-03-08T11:48:49.244Z,48.70
2024-03-08T11:51:16.223Z,48.52
2024-03-08T11:53:46.005Z,48.14
2024-03-08T11:56:14.927Z,48.32
2024-03-08T11:58:41.653Z,48.27
2024-03-08T12:01:12.210Z,48.13
2024-03-08T12:03:43.691Z,48.18
2024-03-08T12:06:11.028Z,48.61
2024-03-08T12:08:37.996Z,48.24
2024-03-08T12:11:08.242Z,48.13
2024-03-08T12:13:35.525Z,48.18
2024-03-08T12:16:05.499Z,48.05
2024-03-08T12:18:36.041Z,48.17
2024-03-08T12:21:09.479Z,48.34
2024-03-08T12:23:36.416Z,48.27
2024-03-08T12:26:16.845Z,48.41
2024-03-08T12:28:47.438Z,48.31
2024-03-08T12:31:18.218Z,48.33
2024-03-08T12:33:53.816Z,48.20
2024-03-08T12:36:21.910Z,48.20
2024-03-08T12:38:51.439Z,48.17
2024-03-08T12:41:19.631Z,48.15
2024-03-08T12:43:49.801Z,48.10
2024-03-08T12:46:40.487Z,48.10
2024-03-08T12:49:10.668Z,47.95
2024-03-08T12:51:37.933Z,48.09
2024-03-08T12:54:07.872Z,48.06
2024-03-08T12:56:35.822Z,47.94
2024-03-08T12:59:04.069Z,48.08
2024-03-08T13:01:33.240Z,48.04
2024-03-08T13:04:00.127Z,48.35
2024-03-08T13:06:26.872Z,48.30
2024-03-08T13:08:54.120Z,48.27
2024-03-08T13:11:21.133Z,48.55
2024-03-08T13:13:47.862Z,48.19
2024-03-08T13:16:18.533Z,48.15
2024-03-08T13:18:45.159Z,48.25
2024-03-08T13:21:11.990Z,48.23
2024-03-08T13:23:41.663Z,48.15
2024-03-08T13:26:08.598Z,47.99
2024-03-08T13:28:39.015Z,48.52
2024-03-08T13:31:07.574Z,47.93
2024-03-08T13:33:38.039Z,48.00
2024-03-08T13:36:08.361Z,47.98
2024-03-08T13:38:37.646Z,48.12
2024-03-08T13:41:04.440Z,48.16
2024-03-08T13:43:33.588Z,48.33
2024-03-08T13:46:00.146Z,48.37
2024-03-08T13:48:26.674Z,48.30
2024-03-08T13:50:53.189Z,48.09
2024-03-08T13:53:19.771Z,48.36
2024-03-08T13:55:46.535Z,48.42
2024-03-08T13:58:15.105Z,48.31
2024-03-08T14:00:44.599Z,47.78
2024-03-08T14:03:11.628Z,48.35
2024-03-08T14:05:42.692Z,48.27
2024-03-08T14:08:09.866Z,48.14
2024-03-08T14:10:38.520Z,48.18
2024-03-08T14:13:06.148Z,48.11
2024-03-08T14:15:32.955Z,48.01
2024-03-08T14:17:59.629Z,48.03
2024-03-08T14:20:29.058Z,48.14
2024-03-08T14:22:58.528Z,48.47
2024-03-08T14:25:25.491Z,48.33
2024-03-08T14:27:59.151Z,48.36
2024-03-08T14:30:39.701Z,48.33
2024-03-08T14:33:06.845Z,48.26
2024-03-08T14:35:33.602Z,48.12
2024-03-08T14:38:01.596Z,47.85
2024-03-08T14:40:28.417Z,48.18
2024-03-08T14:42:55.058Z,48.12
2024-03-08T14:45:21.677Z,48.06
2024-03-08T14:47:51.826Z,48.06
2024-03-08T14:50:19.239Z,47.92
2024-03-08T14:52:47.418Z,47.92
2024-03-08T14:55:15.822Z,48.34
2024-03-08T14:57:43.044Z,48.07
2024-03-08T15:00:17.541Z,47.95
2024-03-08T15:02:44.643Z,48.11
2024-03-08T15:05:12.636Z,48.42
2024-03-08T15:07:40.411Z,48.38
2024-03-08T15:10:12.022Z,48.40
2024-03-08T15:12:40.512Z,48.28
2024-03-08T15:15:11.064Z,48.27
2024-03-08T15:17:40.729Z,48.17
2024-03-08T15:20:16.265Z,48.01
2024-03-08T15:22:48.958Z,48.07
2024-03-08T15:25:27.252Z,47.87
2024-03-08T15:27:54.667Z,47.88
2024-03-08T15:30:27.456Z,48.03
2024-03-08T15:33:04.495Z,47.50
2024-03-08T15:35:33.246Z,47.74
2024-03-08T15:38:01.194Z,48.21
2024-03-08T15:40:29.158Z,47.53
2024-03-08T15:42:56.368Z,48.26
2024-03-08T15:45:29.525Z,48.23
2024-03-08T15:47:56.298Z,48.37
2024-03-08T15:50:25.678Z,48.18
2024-03-08T15:52:54.224Z,47.74
2024-03-08T15:55:24.094Z,48.18
2024-03-08T15:57:51.467Z,48.09
2024-03-08T16:00:37.141Z,48.00
2024-03-08T16:03:07.448Z,47.92
2024-03-08T16:05:35.461Z,47.85
2024-03-08T16:08:02.808Z,47.81
2024-03-08T16:10:34.423Z,48.06
2024-03-08T16:13:02.845Z,47.88
2024-03-08T16:15:29.390Z,47.81
2024-03-08T16:17:56.088Z,47.92
2024-03-08T16:20:23.911Z,48.05
2024-03-08T16:22:53.080Z,48.12
2024-03-08T16:25:21.480Z,48.22
2024-03-08T16:27:51.136Z,48.11
2024-03-08T16:30:17.750Z,48.19
2024-03-08T16:32:46.084Z,48.22
2024-03-08T16:35:12.885Z,48.05
2024-03-08T16:37:41.288Z,48.09
2024-03-08T16:40:08.393Z,47.94
2024-03-08T16:42:34.917Z,47.95
2024-03-08T16:45:02.109Z,47.94
2024-03-08T16:47:28.950Z,47.74
2024-03-08T16:49:56.001Z,47.74
2024-03-08T16:52:23.802Z,47.99
2024-03-08T16:54:57.129Z,47.69
2024-03-08T16:57:30.312Z,47.93
2024-03-08T16:59:56.969Z,48.02
2024-03-08T17:02:23.620Z,48.59
2024-03-08T17:04:50.262Z,48.06
2024-03-08T17:07:16.851Z,48.08
2024-03-08T17:09:43.559Z,48.27
2024-03-08T17:12:11.611Z,48.33
2024-03-08T17:14:41.516Z,48.05
2024-03-08T17:17:08.920Z,48.00
2024-03-08T17:19:35.645Z,48.02
2024-03-08T17:22:04.565Z,47.93
2024-03-08T17:24:31.180Z,47.86
2024-03-08T17:26:58.982Z,47.75
2024-03-08T17:29:26.600Z,47.71
2024-03-08T17:31:54.498Z,47.76
2024-03-08T17:34:21.232Z,48.01
2024-03-08T17:36:47.927Z,47.86
2024-03-08T17:39:20.845Z,47.87
2024-03-08T17:41:50.348Z,48.00
2024-03-08T17:44:18.065Z,48.25
2024-03-08T17:46:50.558Z,48.27
2024-03-08T17:49:17.504Z,48.27
2024-03-08T17:51:44.135Z,48.10
2024-03-08T17:54:15.256Z,48.08
2024-03-08T17:56:42.146Z,48.01
2024-03-08T17:59:08.948Z,48.04
2024-03-08T18:01:37.443Z,48.00
2024-03-08T18:04:07.594Z,48.04
2024-03-08T18:06:37.620Z,47.89
2024-03-08T18:09:06.747Z,47.83
2024-03-08T18:11:36.487Z,47.76
2024-03-08T18:14:05.533Z,47.69
2024-03-08T18:16:34.931Z,47.89
2024-03-08T18:19:08.469Z,47.93
2024-03-08T18:21:37.393Z,48.03
2024-03-08T18:24:05.133Z,48.09
2024-03-08T18:26:34.945Z,48.09
2024-03-08T18:29:04.425Z,48.08
2024-03-08T18:31:31.750Z,48.05
2024-03-08T18:34:01.215Z,47.91
2024-03-08T18:36:31.508Z,47.90
2024-03-08T18:38:59.397Z,47.96
2024-03-08T18:41:29.642Z,47.66
2024-03-08T18:43:58.861Z,47.89
2024-03-08T18:46:27.197Z,47.80
2024-03-08T18:48:54.240Z,47.70
2024-03-08T18:51:20.845Z,47.74
2024-03-08T18:53:47.364Z,47.57
2024-03-08T18:56:18.001Z,47.75
2024-03-08T18:58:46.796Z,47.89
2024-03-08T19:01:14.084Z,48.08
2024-03-08T19:03:42.382Z,48.05
2024-03-08T19:06:09.145Z,48.07
2024-03-08T19:08:37.732Z,48.14
2024-03-08T19:11:05.137Z,48.08
2024-03-08T19:13:32.204Z,48.00
2024-03-08T19:15:58.903Z,47.99
2024-03-08T19:18:27.841Z,47.70
2024-03-08T19:20:57.478Z,47.72
2024-03-08T19:23:24.161Z,47.71
2024-03-08T19:25:51.126Z,47.60
2024-03-08T19:28:19.565Z,47.39
2024-03-08T19:30:46.148Z,47.50
2024-03-08T19:33:14.280Z,47.64
2024-03-08T19:35:41.850Z,47.29
2024-03-08T19:38:11.882Z,47.67
2024-03-08T19:40:42.152Z,47.77
2024-03-08T19:43:11.441Z,47.89
2024-03-08T19:45:40.036Z,47.96
2024-03-08T19:48:10.504Z,47.87
2024-03-08T19:50:44.319Z,47.91
2024-03-08T19:53:11.243Z,47.86
2024-03-08T19:55:40.382Z,47.75
2024-03-08T19:58:13.496Z,47.48
2024-03-08T20:00:40.129Z,47.57
2024-03-08T20:03:08.621Z,47.59
2024-03-08T20:05:35.924Z,47.45
2024-03-08T20:08:09.032Z,47.42
2024-03-08T20:10:38.106Z,47.41
2024-03-08T20:13:08.429Z,47.55
2024-03-08T20:15:38.848Z,47.36
2024-03-08T20:18:06.980Z,47.51
2024-03-08T20:20:36.424Z,47.71
2024-03-08T20:23:04.829Z,47.64
2024-03-08T20:25:33.160Z,47.90
2024-03-08T20:28:01.547Z,47.99
2024-03-08T20:30:30.822Z,47.91
2024-03-08T20:33:00.174Z,47.80
2024-03-08T20:35:28.385Z,47.64
2024-03-08T20:37:56.605Z,47.66
2024-03-08T20:40:59.541Z,47.47
2024-03-08T20:43:26.159Z,47.55
2024-03-08T20:45:53.800Z,47.23
2024-03-08T20:48:22.334Z,47.47
2024-03-08T20:50:50.991Z,47.41
2024-03-08T20:53:18.444Z,47.27
2024-03-08T20:55:45.497Z,47.75
2024-03-08T20:58:12.579Z,47.54
2024-03-08T21:00:42.518Z,47.70
2024-03-08T21:03:14.278Z,47.72
2024-03-08T21:05:45.121Z,47.86
2024-03-08T21:08:18.038Z,47.84
2024-03-08T21:10:47.033Z,47.75
2024-03-08T21:13:13.957Z,47.52
2024-03-08T21:15:41.116Z,47.62
2024-03-08T21:18:10.686Z,47.27
2024-03-08T21:20:37.468Z,47.39
2024-03-08T21:23:07.056Z,47.43
2024-03-08T21:25:33.846Z,47.22
2024-03-08T21:28:05.215Z,47.33
2024-03-08T21:30:32.181Z,47.55
2024-03-08T21:33:07.232Z,47.34
2024-03-08T21:35:34.523Z,47.12
2024-03-08T21:38:01.892Z,47.26
2024-03-08T21:40:31.865Z,47.39
2024-03-08T21:43:02.032Z,47.59
2024-03-08T21:45:32.092Z,47.82
2024-03-08T21:48:03.936Z,47.54
2024-03-08T21:50:31.521Z,47.28
2024-03-08T21:52:58.187Z,47.49
2024-03-08T21:55:26.116Z,47.49
2024-03-08T21:57:52.804Z,47.57
2024-03-08T22:00:19.768Z,47.31
2024-03-08T22:02:47.274Z,47.29
2024-03-08T22:05:17.431Z,47.40
2024-03-08T22:07:45.640Z,47.33
2024-03-08T22:10:14.143Z,47.17
2024-03-08T22:12:40.725Z,47.29
2024-03-08T22:15:10.271Z,47.19
2024-03-08T22:17:36.961Z,47.42
2024-03-08T22:20:12.662Z,47.33
2024-03-08T22:22:39.455Z,47.55
2024-03-08T22:25:07.973Z,47.64
2024-03-08T22:27:34.544Z,47.70
2024-03-08T22:30:01.157Z,47.63
2024-03-08T22:32:29.133Z,47.67
2024-03-08T22:34:55.832Z,47.22
2024-03-08T22:37:24.073Z,47.21
2024-03-08T22:39:50.828Z,47.25
2024-03-08T22:42:17.403Z,47.30
2024-03-08T22:44:44.061Z,47.17
2024-03-08T22:47:11.294Z,47.09
2024-03-08T22:49:37.934Z,47.01
2024-03-08T22:52:04.730Z,47.16
2024-03-08T22:54:31.322Z,46.99
2024-03-08T22:57:09.436Z,47.09
2024-03-08T22:59:36.588Z,47.35
2024-03-08T23:02:04.345Z,47.35
2024-03-08T23:04:30.975Z,47.39
2024-03-08T23:06:57.551Z,47.63
2024-03-08T23:09:25.014Z,47.74
2024-03-08T23:11:51.558Z,47.48
2024-03-08T23:14:18.265Z,47.36
2024-03-08T23:16:47.941Z,47.27
2024-03-08T23:19:14.695Z,47.19
2024-03-08T23:21:41.310Z,47.27
2024-03-08T23:24:07.910Z,47.23
2024-03-08T23:26:34.493Z,47.18
2024-03-08T23:29:02.207Z,47.01
2024-03-08T23:31:29.203Z,47.28
2024-03-08T23:33:55.915Z,47.19
2024-03-08T23:36:22.427Z,47.30
2024-03-08T23:38:50.808Z,47.34
2024-03-08T23:41:18.681Z,47.35
2024-03-08T23:43:45.387Z,47.58
2024-03-08T23:46:12.469Z,47.69
2024-03-08T23:48:39.041Z,47.59
2024-03-08T23:51:07.561Z,47.60
2024-03-08T23:53:34.403Z,47.49
2024-03-08T23:56:01.315Z,47.54
2024-03-08T23:58:28.241Z,47.12
